sensor_id;sensor_type;location;lat;lon;timestamp;temperature;humidity
73875;HTU21D;62209;47.568;7.558;2022-10-03T00:13:42;13.58;110.65
73875;HTU21D;62209;47.568;7.558;2022-10-03T00:29:08;13.48;110.52
73875;HTU21D;62209;47.568;7.558;2022-10-03T00:44:34;13.35;111.04
73875;HTU21D;62209;47.568;7.558;2022-10-03T01:00:04;13.27;110.97
73875;HTU21D;62209;47.568;7.558;2022-10-03T01:15:21;13.12;111.28
73875;HTU21D;62209;47.568;7.558;2022-10-03T01:30:36;13.06;111.52
73875;HTU21D;62209;47.568;7.558;2022-10-03T01:45:46;12.99;111.64
73875;HTU21D;62209;47.568;7.558;2022-10-03T02:01:00;12.96;111.69
73875;HTU21D;62209;47.568;7.558;2022-10-03T02:16:14;12.86;112.03
73875;HTU21D;62209;47.568;7.558;2022-10-03T02:47:34;12.79;111.94
73875;HTU21D;62209;47.568;7.558;2022-10-03T03:03:30;12.71;111.74
73875;HTU21D;62209;47.568;7.558;2022-10-03T03:18:52;12.57;111.84
73875;HTU21D;62209;47.568;7.558;2022-10-03T03:34:28;12.48;111.76
73875;HTU21D;62209;47.568;7.558;2022-10-03T03:49:41;12.42;112.03
73875;HTU21D;62209;47.568;7.558;2022-10-03T04:05:06;12.48;112.06
73875;HTU21D;62209;47.568;7.558;2022-10-03T04:20:27;12.44;112.06
73875;HTU21D;62209;47.568;7.558;2022-10-03T04:51:33;12.48;112.40
73875;HTU21D;62209;47.568;7.558;2022-10-03T05:06:50;12.49;112.48
73875;HTU21D;62209;47.568;7.558;2022-10-03T05:22:07;12.49;112.38
73875;HTU21D;62209;47.568;7.558;2022-10-03T05:37:27;12.52;112.26
73875;HTU21D;62209;47.568;7.558;2022-10-03T05:52:58;12.43;112.37
73875;HTU21D;62209;47.568;7.558;2022-10-03T06:24:14;12.51;112.55
73875;HTU21D;62209;47.568;7.558;2022-10-03T06:40:03;12.57;112.59
73875;HTU21D;62209;47.568;7.558;2022-10-03T07:11:02;12.47;112.10
73875;HTU21D;62209;47.568;7.558;2022-10-03T07:42:09;12.28;112.16
73875;HTU21D;62209;47.568;7.558;2022-10-03T07:57:36;12.34;112.03
73875;HTU21D;62209;47.568;7.558;2022-10-03T08:13:08;12.36;112.01
73875;HTU21D;62209;47.568;7.558;2022-10-03T08:28:31;12.71;111.61
73875;HTU21D;62209;47.568;7.558;2022-10-03T09:15:22;13.60;108.88
73875;HTU21D;62209;47.568;7.558;2022-10-03T09:30:47;14.00;108.10
73875;HTU21D;62209;47.568;7.558;2022-10-03T09:46:02;14.24;106.46
73875;HTU21D;62209;47.568;7.558;2022-10-03T10:01:31;14.73;104.70
73875;HTU21D;62209;47.568;7.558;2022-10-03T10:16:52;15.26;103.97
73875;HTU21D;62209;47.568;7.558;2022-10-03T11:19:44;16.78;97.62
73875;HTU21D;62209;47.568;7.558;2022-10-03T11:51:03;16.65;97.42
73875;HTU21D;62209;47.568;7.558;2022-10-03T12:06:14;16.59;96.84
73875;HTU21D;62209;47.568;7.558;2022-10-03T12:21:50;17.45;93.59
73875;HTU21D;62209;47.568;7.558;2022-10-03T12:37:03;17.44;93.32
73875;HTU21D;62209;47.568;7.558;2022-10-03T12:52:26;17.39;90.92
73875;HTU21D;62209;47.568;7.558;2022-10-03T13:07:37;17.49;91.40
73875;HTU21D;62209;47.568;7.558;2022-10-03T13:22:51;18.08;88.23
73875;HTU21D;62209;47.568;7.558;2022-10-03T13:38:18;18.09;87.78
73875;HTU21D;62209;47.568;7.558;2022-10-03T14:24:47;18.78;86.85
73875;HTU21D;62209;47.568;7.558;2022-10-03T14:55:26;17.49;89.09
73875;HTU21D;62209;47.568;7.558;2022-10-03T15:10:36;17.16;89.64
73875;HTU21D;62209;47.568;7.558;2022-10-03T15:25:42;16.85;90.19
73875;HTU21D;62209;47.568;7.558;2022-10-03T15:41:06;16.62;91.11
73875;HTU21D;62209;47.568;7.558;2022-10-03T15:56:18;16.57;91.66
73875;HTU21D;62209;47.568;7.558;2022-10-03T16:11:30;16.22;94.07
73875;HTU21D;62209;47.568;7.558;2022-10-03T16:26:45;15.84;94.66
73875;HTU21D;62209;47.568;7.558;2022-10-03T16:41:55;15.42;96.64
73875;HTU21D;62209;47.568;7.558;2022-10-03T16:57:04;14.88;98.92
73875;HTU21D;62209;47.568;7.558;2022-10-03T17:12:16;14.39;100.39
73875;HTU21D;62209;47.568;7.558;2022-10-03T17:27:26;13.88;101.23
73875;HTU21D;62209;47.568;7.558;2022-10-03T17:42:40;13.33;101.32
73875;HTU21D;62209;47.568;7.558;2022-10-03T17:57:49;12.76;103.79
73875;HTU21D;62209;47.568;7.558;2022-10-03T18:12:59;12.43;103.39
73875;HTU21D;62209;47.568;7.558;2022-10-03T18:28:13;12.02;104.74
73875;HTU21D;62209;47.568;7.558;2022-10-03T18:43:26;11.64;104.79
73875;HTU21D;62209;47.568;7.558;2022-10-03T18:58:36;11.37;105.51
73875;HTU21D;62209;47.568;7.558;2022-10-03T19:13:48;11.05;105.83
73875;HTU21D;62209;47.568;7.558;2022-10-03T19:29:02;10.69;105.60
73875;HTU21D;62209;47.568;7.558;2022-10-03T19:44:12;10.30;105.98
73875;HTU21D;62209;47.568;7.558;2022-10-03T19:59:32;10.05;106.07
73875;HTU21D;62209;47.568;7.558;2022-10-03T20:14:41;9.79;106.97
73875;HTU21D;62209;47.568;7.558;2022-10-03T20:29:49;9.51;106.60
73875;HTU21D;62209;47.568;7.558;2022-10-03T20:45:02;9.19;106.12
73875;HTU21D;62209;47.568;7.558;2022-10-03T21:00:18;9.14;106.97
73875;HTU21D;62209;47.568;7.558;2022-10-03T21:15:31;8.79;107.15
73875;HTU21D;62209;47.568;7.558;2022-10-03T21:30:47;8.68;107.85
73875;HTU21D;62209;47.568;7.558;2022-10-03T21:46:20;8.45;107.62
73875;HTU21D;62209;47.568;7.558;2022-10-03T22:01:32;8.04;106.48
73875;HTU21D;62209;47.568;7.558;2022-10-03T22:16:47;7.92;107.49
73875;HTU21D;62209;47.568;7.558;2022-10-03T22:31:58;7.88;108.15
73875;HTU21D;62209;47.568;7.558;2022-10-03T22:47:11;7.70;107.95
73875;HTU21D;62209;47.568;7.558;2022-10-03T23:02:24;7.49;107.37
73875;HTU21D;62209;47.568;7.558;2022-10-03T23:17:37;7.67;107.97
73875;HTU21D;62209;47.568;7.558;2022-10-03T23:32:57;8.04;109.07
73875;HTU21D;62209;47.568;7.558;2022-10-03T23:48:04;8.58;109.48
